UHMA

Details ICAO UHMA (DYR)
Name UGOLNY
Region Russia
Timezone Asia/Anadyr (UTC+12.0)
Plans Departing 111
Arriving 123
Stats Elevation 194 ft / 59 m (AMSL)
Location 64.734950° 177.741483°
Runways 1
Magnetic Variation 1.325° E
Sunrise 2018-06-19 13:20:30 UTC / 2018-06-20 01:20:30 Local
Sunset 2018-06-20 11:02:58 UTC / 2018-06-20 23:02:58 Local
Advertisement - Login to hide

Runways

ID Width Length Bearing (true) Bearing (mag) Surface Threshold Offset Overrun Length
01 197 ft / 60 m 11,439 ft / 3,487 m 14.65° 13.32° Concrete 0 ft / 0 m 240 ft / 73 m
19 197 ft / 60 m 11,439 ft / 3,487 m 194.66° 193.33° Concrete 0 ft / 0 m 240 ft / 73 m

Map

Weather


0- 5 10 15 20 25 30 35+ Temperature / ° C

Clouds and Precipitation
Forecast for 2018-06-20 12:00 UTC. Updated a few seconds ago

Ground ~20,000 ft ~40,000 ft Winds

METAR

UHMA 200900Z 16004MPS 9999 BKN050 OVC080 10/M01 Q1016 RMK END R01/15002MPS QFE758/1011

TAF

TAF UHMA 200755Z 2009/2109 13003G08MPS 9999 SCT040 TEMPO 2009/2109 18007MPS 4000 -SHRA BR SCT010 BKN033CB

Frequencies

Tower 124.00 MHz ANADYR TWR
Approach 124.00 MHz ANADYR APP
Warning: Do not use this data for real-world aviation or navigation. No guarantee of current accuracy is given.